createdAt,value
2017-10-22T00:01:41.593Z,12.10
2017-10-22T00:04:08.667Z,12.00
2017-10-22T00:06:35.577Z,12.00
2017-10-22T00:09:01.930Z,11.90
2017-10-22T00:11:28.977Z,11.80
2017-10-22T00:13:56.533Z,11.90
2017-10-22T00:16:23.455Z,11.90
2017-10-22T00:18:50.051Z,12.00
2017-10-22T00:21:16.356Z,12.00
2017-10-22T00:23:44.004Z,12.00
2017-10-22T00:26:10.681Z,12.00
2017-10-22T00:28:37.718Z,12.20
2017-10-22T00:31:04.071Z,12.10
2017-10-22T00:33:31.270Z,12.40
2017-10-22T00:35:57.891Z,12.40
2017-10-22T00:38:24.243Z,12.40
2017-10-22T00:40:50.578Z,12.50
2017-10-22T00:43:17.059Z,12.60
2017-10-22T00:45:43.383Z,12.70
2017-10-22T00:48:09.805Z,12.80
2017-10-22T00:50:36.556Z,12.90
2017-10-22T00:53:03.247Z,12.90
2017-10-22T00:55:30.884Z,13.00
2017-10-22T00:57:57.233Z,13.00
2017-10-22T01:00:24.163Z,13.00
2017-10-22T01:02:51.002Z,13.10
2017-10-22T01:05:17.320Z,13.10
2017-10-22T01:07:44.114Z,13.10
2017-10-22T01:10:10.451Z,13.10
2017-10-22T01:12:37.967Z,13.10
2017-10-22T01:15:04.762Z,13.10
2017-10-22T01:17:31.595Z,13.00
2017-10-22T01:19:58.500Z,13.00
2017-10-22T01:22:24.842Z,12.90
2017-10-22T01:24:51.727Z,12.90
2017-10-22T01:27:18.059Z,12.80
2017-10-22T01:29:44.387Z,12.80
2017-10-22T01:32:10.877Z,12.70
2017-10-22T01:34:38.347Z,12.70
2017-10-22T01:37:04.699Z,12.70
2017-10-22T01:39:31.044Z,12.60
2017-10-22T01:41:57.540Z,12.60
2017-10-22T01:44:24.635Z,12.50
2017-10-22T01:46:51.079Z,12.50
2017-10-22T01:49:17.803Z,12.40
2017-10-22T01:51:44.641Z,12.40
2017-10-22T01:54:11.543Z,12.50
2017-10-22T01:56:37.872Z,12.40
2017-10-22T01:59:04.219Z,12.30
2017-10-22T02:01:30.684Z,12.40
2017-10-22T02:03:57.770Z,12.30
2017-10-22T02:06:24.748Z,12.30
2017-10-22T02:08:51.733Z,12.20
2017-10-22T02:11:18.540Z,12.30
2017-10-22T02:13:45.527Z,12.20
2017-10-22T02:16:11.842Z,12.20
2017-10-22T02:18:38.539Z,12.20
2017-10-22T02:21:05.306Z,12.20
2017-10-22T02:23:31.639Z,12.10
2017-10-22T02:25:57.995Z,12.10
2017-10-22T02:28:24.465Z,12.10
2017-10-22T02:30:50.792Z,12.00
2017-10-22T02:33:17.238Z,11.90
2017-10-22T02:35:44.230Z,11.90
2017-10-22T02:38:10.540Z,11.80
2017-10-22T02:40:37.625Z,11.80
2017-10-22T02:43:04.159Z,11.80
2017-10-22T02:45:30.978Z,11.80
2017-10-22T02:47:57.313Z,11.70
2017-10-22T02:50:24.746Z,11.80
2017-10-22T02:52:51.740Z,11.70
2017-10-22T02:55:20.102Z,11.80
2017-10-22T02:57:46.399Z,11.80
2017-10-22T03:00:12.756Z,11.80
2017-10-22T03:02:39.096Z,11.80
2017-10-22T03:05:05.820Z,11.80
2017-10-22T03:07:32.659Z,11.70
2017-10-22T03:09:59.480Z,11.70
2017-10-22T03:12:26.547Z,11.70
2017-10-22T03:14:52.868Z,11.70
2017-10-22T03:17:20.437Z,11.70
2017-10-22T03:19:47.208Z,11.70
2017-10-22T03:22:13.527Z,11.70
2017-10-22T03:24:39.830Z,11.70
2017-10-22T03:27:06.296Z,11.60
2017-10-22T03:29:32.598Z,11.50
2017-10-22T03:31:59.006Z,11.50
2017-10-22T03:34:25.651Z,11.50
2017-10-22T03:36:51.964Z,11.40
2017-10-22T03:39:18.295Z,11.40
2017-10-22T03:41:45.108Z,11.40
2017-10-22T03:44:12.163Z,11.30
2017-10-22T03:46:39.201Z,11.20
2017-10-22T03:49:05.943Z,11.20
2017-10-22T03:51:32.247Z,11.20
2017-10-22T03:53:59.088Z,11.20
2017-10-22T03:56:25.866Z,11.20
2017-10-22T03:58:52.158Z,11.10
2017-10-22T04:01:18.449Z,11.10
2017-10-22T04:03:44.780Z,11.10
2017-10-22T04:06:11.731Z,11.10
2017-10-22T04:08:38.027Z,11.00
2017-10-22T04:11:04.319Z,10.90
2017-10-22T04:13:31.399Z,10.70
2017-10-22T04:15:58.119Z,10.70
2017-10-22T04:18:25.741Z,10.70
2017-10-22T04:20:52.039Z,10.70
2017-10-22T04:23:18.347Z,10.70
2017-10-22T04:25:45.158Z,10.70
2017-10-22T04:28:11.455Z,10.70
2017-10-22T04:30:38.302Z,10.70
2017-10-22T04:33:05.053Z,10.60
2017-10-22T04:35:31.676Z,10.60
2017-10-22T04:37:58.724Z,10.60
2017-10-22T04:40:26.093Z,10.60
2017-10-22T04:42:53.144Z,10.70
2017-10-22T04:45:20.184Z,10.60
2017-10-22T04:47:46.638Z,10.60
2017-10-22T04:50:14.027Z,10.60
2017-10-22T04:52:40.367Z,10.60
2017-10-22T04:55:07.139Z,10.60
2017-10-22T04:57:33.487Z,10.60
2017-10-22T04:59:59.813Z,10.60
2017-10-22T05:02:26.494Z,10.60
2017-10-22T05:04:53.984Z,10.50
2017-10-22T05:07:20.803Z,10.50
2017-10-22T05:09:47.841Z,10.50
2017-10-22T05:12:14.718Z,10.40
2017-10-22T05:14:41.043Z,10.40
2017-10-22T05:17:08.769Z,10.40
2017-10-22T05:19:35.598Z,10.40
2017-10-22T05:22:01.883Z,10.40
2017-10-22T05:24:29.375Z,10.40
2017-10-22T05:26:56.555Z,10.40
2017-10-22T05:29:23.271Z,10.40
2017-10-22T05:31:49.603Z,10.50
2017-10-22T05:34:17.271Z,10.50
2017-10-22T05:36:43.584Z,10.50
2017-10-22T05:39:09.917Z,10.50
2017-10-22T05:41:37.027Z,10.50
2017-10-22T05:44:03.365Z,10.40
2017-10-22T05:46:29.782Z,10.40
2017-10-22T05:48:56.878Z,10.40
2017-10-22T05:51:23.187Z,10.40
2017-10-22T05:53:50.051Z,10.40
2017-10-22T05:56:16.967Z,10.30
2017-10-22T05:58:43.290Z,10.30
2017-10-22T06:01:10.675Z,10.40
2017-10-22T06:03:37.001Z,10.30
2017-10-22T06:06:03.798Z,10.40
2017-10-22T06:08:30.483Z,10.40
2017-10-22T06:10:56.872Z,10.40
2017-10-22T06:13:23.163Z,10.40
2017-10-22T06:15:49.831Z,10.40
2017-10-22T06:18:16.819Z,10.30
2017-10-22T06:20:43.600Z,10.40
2017-10-22T06:23:09.921Z,10.40
2017-10-22T06:25:37.407Z,10.40
2017-10-22T06:28:03.715Z,10.40
2017-10-22T06:30:30.776Z,10.40
2017-10-22T06:32:57.864Z,10.40
2017-10-22T06:35:24.670Z,10.40
2017-10-22T06:37:51.764Z,10.40
2017-10-22T06:40:18.109Z,10.40
2017-10-22T06:42:44.479Z,10.40
2017-10-22T06:45:10.822Z,10.40
2017-10-22T06:47:37.263Z,10.40
2017-10-22T06:50:04.164Z,10.50
2017-10-22T06:52:30.515Z,10.50
2017-10-22T06:54:57.545Z,10.50
2017-10-22T06:57:23.899Z,10.60
2017-10-22T06:59:50.682Z,10.70
2017-10-22T07:02:17.057Z,10.70
2017-10-22T07:04:43.428Z,10.70
2017-10-22T07:07:10.223Z,10.70
2017-10-22T07:09:37.814Z,10.80
2017-10-22T07:12:04.156Z,10.80
2017-10-22T07:14:30.499Z,10.90
2017-10-22T07:16:56.879Z,10.90
2017-10-22T07:19:24.515Z,11.00
2017-10-22T07:21:50.827Z,11.10
2017-10-22T07:24:17.565Z,11.00
2017-10-22T07:26:43.885Z,11.00
2017-10-22T07:29:10.939Z,11.00
2017-10-22T07:31:38.020Z,11.10
2017-10-22T07:34:04.834Z,11.10
2017-10-22T07:36:31.907Z,11.20
2017-10-22T07:38:58.271Z,11.20
2017-10-22T07:41:24.780Z,11.20
2017-10-22T07:43:51.120Z,11.20
2017-10-22T07:46:17.580Z,11.20
2017-10-22T07:48:44.404Z,11.20
2017-10-22T07:51:10.740Z,11.20
2017-10-22T07:53:37.760Z,11.20
2017-10-22T07:56:04.435Z,11.20
2017-10-22T07:58:30.752Z,11.30
2017-10-22T08:00:57.848Z,11.30
2017-10-22T08:03:24.541Z,11.30
2017-10-22T08:05:51.606Z,11.40
2017-10-22T08:08:18.646Z,11.40
2017-10-22T08:10:46.104Z,11.40
2017-10-22T08:13:13.000Z,11.40
2017-10-22T08:15:39.936Z,11.40
2017-10-22T08:18:06.873Z,11.40
2017-10-22T08:20:34.483Z,11.50
2017-10-22T08:23:00.771Z,11.50
2017-10-22T08:25:27.831Z,11.50
2017-10-22T08:27:54.303Z,11.50
2017-10-22T08:30:20.612Z,11.50
2017-10-22T08:32:47.016Z,11.60
2017-10-22T08:35:13.751Z,11.70
2017-10-22T08:37:40.208Z,11.70
2017-10-22T08:40:07.286Z,11.70
2017-10-22T08:42:33.659Z,11.60
2017-10-22T08:45:00.012Z,11.60
2017-10-22T08:47:26.517Z,11.60
2017-10-22T08:49:53.451Z,11.40
2017-10-22T08:52:19.808Z,11.40
2017-10-22T08:54:46.705Z,11.40
2017-10-22T08:57:13.488Z,11.30
2017-10-22T08:59:40.328Z,11.30
2017-10-22T09:02:06.663Z,11.30
2017-10-22T09:04:33.012Z,11.30
2017-10-22T09:06:59.994Z,11.30
2017-10-22T09:09:26.323Z,11.30
2017-10-22T09:11:53.140Z,11.40
2017-10-22T09:14:20.090Z,11.30
2017-10-22T09:16:46.459Z,11.30
2017-10-22T09:19:13.272Z,11.30
2017-10-22T09:21:40.087Z,11.40
2017-10-22T09:24:06.423Z,11.40
2017-10-22T09:26:32.755Z,11.40
2017-10-22T09:28:59.234Z,11.40
2017-10-22T09:31:25.570Z,11.40
2017-10-22T09:33:52.291Z,11.40
2017-10-22T09:36:19.367Z,11.70
2017-10-22T09:38:45.714Z,11.60
2017-10-22T09:41:12.091Z,11.80
2017-10-22T09:43:38.419Z,11.90
2017-10-22T09:46:05.132Z,12.00
2017-10-22T09:48:31.526Z,12.10
2017-10-22T09:50:58.374Z,12.10
2017-10-22T09:53:25.224Z,12.20
2017-10-22T09:55:51.956Z,12.20
2017-10-22T09:58:18.761Z,12.20
2017-10-22T10:00:45.108Z,12.20
2017-10-22T10:03:11.451Z,12.30
2017-10-22T10:05:38.223Z,12.30
2017-10-22T10:08:04.579Z,12.30
2017-10-22T10:10:31.675Z,12.30
2017-10-22T10:12:58.350Z,12.30
2017-10-22T10:15:25.359Z,12.40
2017-10-22T10:17:52.031Z,12.40
2017-10-22T10:20:18.658Z,12.50
2017-10-22T10:22:45.020Z,12.50
2017-10-22T10:25:11.406Z,12.40
2017-10-22T10:27:38.927Z,12.20
2017-10-22T10:30:05.330Z,12.20
2017-10-22T10:32:31.679Z,12.30
2017-10-22T10:34:58.585Z,12.40
2017-10-22T10:37:26.088Z,12.60
2017-10-22T10:39:52.673Z,12.50
2017-10-22T10:42:19.369Z,12.60
2017-10-22T10:44:45.727Z,12.60
2017-10-22T10:47:12.071Z,12.60
2017-10-22T10:49:38.939Z,12.60
2017-10-22T10:52:05.288Z,12.70
2017-10-22T10:54:32.821Z,12.70
2017-10-22T10:57:00.409Z,12.70
2017-10-22T10:59:27.315Z,12.70
2017-10-22T11:01:54.032Z,12.80
2017-10-22T11:04:20.359Z,12.80
2017-10-22T11:06:47.431Z,12.80
2017-10-22T11:09:14.479Z,12.80
2017-10-22T11:11:40.811Z,12.70
2017-10-22T11:14:07.161Z,12.70
2017-10-22T11:16:33.544Z,12.70
2017-10-22T11:19:00.288Z,12.60
2017-10-22T11:21:26.695Z,12.60
2017-10-22T11:23:53.008Z,12.50
2017-10-22T11:26:19.375Z,12.40
2017-10-22T11:28:45.671Z,12.40
2017-10-22T11:31:12.420Z,12.30
2017-10-22T11:33:39.504Z,12.40
2017-10-22T11:36:06.241Z,12.40
2017-10-22T11:38:32.579Z,12.30
2017-10-22T11:40:58.998Z,12.30
2017-10-22T11:43:25.340Z,12.20
2017-10-22T11:45:52.123Z,12.20
2017-10-22T11:48:18.909Z,12.30
2017-10-22T11:50:45.815Z,12.30
2017-10-22T11:53:12.887Z,12.40
2017-10-22T11:55:39.724Z,12.50
2017-10-22T11:58:06.035Z,12.50
2017-10-22T12:00:32.916Z,12.40
2017-10-22T12:02:59.247Z,12.50
2017-10-22T12:05:25.548Z,12.40
2017-10-22T12:07:52.328Z,12.20
2017-10-22T12:10:18.654Z,12.10
2017-10-22T12:12:44.987Z,12.20
2017-10-22T12:15:11.999Z,12.10
2017-10-22T12:17:38.718Z,12.00
2017-10-22T12:20:05.555Z,12.00
2017-10-22T12:22:31.887Z,12.00
2017-10-22T12:24:58.300Z,11.90
2017-10-22T12:27:25.029Z,11.70
2017-10-22T12:29:51.344Z,11.60
2017-10-22T12:32:18.398Z,11.50
2017-10-22T12:34:45.259Z,11.50
2017-10-22T12:37:11.596Z,11.40
2017-10-22T12:39:38.623Z,11.50
2017-10-22T12:42:05.696Z,11.60
2017-10-22T12:44:32.515Z,11.60
2017-10-22T12:46:59.571Z,11.80
2017-10-22T12:49:27.032Z,11.90
2017-10-22T12:51:54.499Z,12.00
2017-10-22T12:54:21.586Z,12.00
2017-10-22T12:56:48.395Z,12.00
2017-10-22T12:59:15.808Z,12.20
2017-10-22T13:01:42.716Z,12.20
2017-10-22T13:04:10.188Z,12.20
2017-10-22T13:06:37.003Z,12.20
2017-10-22T13:09:03.715Z,12.30
2017-10-22T13:11:30.005Z,12.20
2017-10-22T13:13:57.037Z,12.30
2017-10-22T13:16:23.491Z,12.30
2017-10-22T13:18:50.923Z,12.20
2017-10-22T13:21:17.240Z,12.20
2017-10-22T13:23:43.970Z,12.10
2017-10-22T13:26:10.279Z,12.10
2017-10-22T13:28:37.312Z,12.20
2017-10-22T13:31:03.680Z,12.10
2017-10-22T13:33:29.968Z,12.10
2017-10-22T13:35:56.752Z,12.10
2017-10-22T13:38:23.391Z,12.20
2017-10-22T13:40:51.156Z,12.20
2017-10-22T13:43:18.673Z,12.10
2017-10-22T13:45:45.507Z,12.10
2017-10-22T13:48:12.279Z,12.00
2017-10-22T13:50:38.614Z,12.00
2017-10-22T13:53:05.338Z,12.00
2017-10-22T13:55:32.004Z,12.00
2017-10-22T13:57:58.835Z,11.90
2017-10-22T14:00:25.819Z,11.90
2017-10-22T14:02:52.579Z,11.90
2017-10-22T14:05:20.385Z,11.90
2017-10-22T14:07:46.809Z,11.90
2017-10-22T14:10:13.435Z,11.80
2017-10-22T14:12:40.880Z,11.70
2017-10-22T14:15:07.778Z,11.70
2017-10-22T14:17:34.574Z,11.70
2017-10-22T14:20:01.339Z,11.60
2017-10-22T14:22:28.390Z,11.60
2017-10-22T14:24:55.861Z,11.50
2017-10-22T14:27:22.940Z,11.40
2017-10-22T14:29:49.719Z,11.40
2017-10-22T14:32:16.780Z,11.30
2017-10-22T14:34:43.667Z,11.30
2017-10-22T14:37:10.025Z,11.30
2017-10-22T14:39:36.974Z,11.30
2017-10-22T14:42:03.800Z,11.20
2017-10-22T14:44:30.103Z,11.20
2017-10-22T14:46:56.447Z,11.10
2017-10-22T14:49:23.169Z,11.10
2017-10-22T14:51:49.951Z,11.10
2017-10-22T14:54:16.992Z,10.90
2017-10-22T14:56:43.731Z,10.90
2017-10-22T14:59:10.672Z,10.90
2017-10-22T15:01:37.002Z,10.80
2017-10-22T15:04:03.343Z,10.90
2017-10-22T15:06:29.983Z,10.80
2017-10-22T15:08:56.756Z,10.70
2017-10-22T15:11:24.224Z,10.60
2017-10-22T15:13:52.039Z,10.60
2017-10-22T15:16:18.773Z,10.70
2017-10-22T15:18:45.948Z,10.60
2017-10-22T15:21:12.800Z,10.60
2017-10-22T15:23:39.576Z,10.60
2017-10-22T15:26:06.412Z,10.60
2017-10-22T15:28:33.359Z,10.50
2017-10-22T15:31:00.195Z,10.50
2017-10-22T15:33:26.976Z,10.50
2017-10-22T15:35:54.473Z,10.40
2017-10-22T15:38:21.187Z,10.40
2017-10-22T15:40:48.820Z,10.30
2017-10-22T15:43:15.522Z,10.30
2017-10-22T15:45:42.363Z,10.20
2017-10-22T15:48:10.295Z,10.30
2017-10-22T15:50:37.207Z,10.20
2017-10-22T15:53:03.971Z,10.20
2017-10-22T15:55:30.809Z,10.20
2017-10-22T15:58:12.858Z,10.10
2017-10-22T16:00:40.356Z,10.10
2017-10-22T16:03:07.111Z,10.10
2017-10-22T16:05:34.015Z,10.10
2017-10-22T16:08:01.607Z,10.10
2017-10-22T16:10:28.484Z,10.00
2017-10-22T16:12:55.331Z,10.00
2017-10-22T16:15:22.076Z,9.90
2017-10-22T16:17:48.919Z,10.00
2017-10-22T16:20:15.516Z,10.00
2017-10-22T16:22:42.574Z,9.90
2017-10-22T16:25:10.176Z,9.80
2017-10-22T16:27:36.475Z,9.90
2017-10-22T16:30:03.531Z,9.80
2017-10-22T16:32:29.874Z,9.80
2017-10-22T16:34:56.706Z,9.80
2017-10-22T16:37:24.236Z,9.80
2017-10-22T16:39:50.528Z,9.80
2017-10-22T16:42:17.277Z,9.70
2017-10-22T16:44:44.003Z,9.60
2017-10-22T16:47:11.063Z,9.60
2017-10-22T16:49:37.824Z,9.60
2017-10-22T16:52:04.120Z,9.60
2017-10-22T16:54:31.831Z,9.60
2017-10-22T16:56:58.483Z,9.60
2017-10-22T16:59:24.805Z,9.50
2017-10-22T17:01:51.100Z,9.40
2017-10-22T17:04:17.429Z,9.50
2017-10-22T17:06:43.740Z,9.50
2017-10-22T17:09:10.509Z,9.40
2017-10-22T17:11:37.413Z,9.40
2017-10-22T17:14:04.211Z,9.40
2017-10-22T17:16:30.507Z,9.40
2017-10-22T17:18:57.442Z,9.40
2017-10-22T17:21:23.761Z,9.40
2017-10-22T17:23:50.079Z,9.30
2017-10-22T17:26:17.151Z,9.40
2017-10-22T17:28:43.979Z,9.40
2017-10-22T17:31:11.882Z,9.30
2017-10-22T17:33:38.686Z,9.30
2017-10-22T17:36:05.359Z,9.30
2017-10-22T17:38:31.687Z,9.30
2017-10-22T17:40:59.187Z,9.30
2017-10-22T17:43:26.074Z,9.20
2017-10-22T17:45:52.848Z,9.30
2017-10-22T17:48:19.892Z,9.30
2017-10-22T17:50:47.456Z,9.20
2017-10-22T17:53:14.884Z,9.20
2017-10-22T17:55:41.744Z,9.20
2017-10-22T17:58:08.359Z,9.20
2017-10-22T18:00:35.304Z,9.20
2017-10-22T18:03:02.020Z,9.20
2017-10-22T18:05:28.374Z,9.30
2017-10-22T18:07:55.093Z,9.30
2017-10-22T18:10:22.794Z,9.30
2017-10-22T18:12:49.182Z,9.30
2017-10-22T18:15:17.059Z,9.20
2017-10-22T18:17:44.507Z,9.20
2017-10-22T18:20:11.203Z,9.20
2017-10-22T18:22:37.519Z,9.30
2017-10-22T18:25:04.389Z,9.30
2017-10-22T18:27:30.851Z,9.30
2017-10-22T18:29:57.774Z,9.30
2017-10-22T18:32:24.971Z,9.30
2017-10-22T18:34:53.163Z,9.40
2017-10-22T18:37:19.786Z,9.40
2017-10-22T18:39:46.285Z,9.40
2017-10-22T18:42:12.941Z,9.50
2017-10-22T18:44:39.856Z,9.50
2017-10-22T18:47:06.981Z,9.50
2017-10-22T18:49:33.903Z,9.50
2017-10-22T18:52:00.240Z,9.50
2017-10-22T18:54:26.974Z,9.40
2017-10-22T18:56:53.735Z,9.40
2017-10-22T18:59:20.060Z,9.40
2017-10-22T19:01:46.927Z,9.50
2017-10-22T19:04:13.233Z,9.50
2017-10-22T19:06:39.559Z,9.40
2017-10-22T19:09:06.368Z,9.50
2017-10-22T19:11:33.186Z,9.50
2017-10-22T19:14:00.047Z,9.40
2017-10-22T19:16:26.376Z,9.30
2017-10-22T19:18:53.215Z,9.30
2017-10-22T19:21:19.549Z,9.30
2017-10-22T19:23:45.859Z,9.30
2017-10-22T19:26:12.633Z,9.30
2017-10-22T19:28:39.355Z,9.30
2017-10-22T19:31:06.033Z,9.30
2017-10-22T19:33:32.351Z,9.30
2017-10-22T19:35:59.120Z,9.30
2017-10-22T19:38:25.425Z,9.30
2017-10-22T19:40:51.754Z,9.40
2017-10-22T19:43:19.252Z,9.40
2017-10-22T19:45:45.610Z,9.40
2017-10-22T19:48:12.343Z,9.40
2017-10-22T19:50:39.179Z,9.40
2017-10-22T19:53:05.504Z,9.40
2017-10-22T19:55:31.815Z,9.30
2017-10-22T19:58:13.639Z,9.30
2017-10-22T20:00:40.669Z,9.30
2017-10-22T20:03:07.371Z,9.40
2017-10-22T20:05:34.977Z,9.40
2017-10-22T20:08:01.860Z,9.40
2017-10-22T20:10:28.666Z,9.40
2017-10-22T20:12:55.015Z,9.40
2017-10-22T20:15:21.978Z,9.30
2017-10-22T20:17:48.924Z,9.30
2017-10-22T20:20:15.929Z,9.20
2017-10-22T20:22:43.008Z,9.30
2017-10-22T20:25:10.016Z,9.30
2017-10-22T20:27:36.333Z,9.30
2017-10-22T20:30:03.287Z,9.30
2017-10-22T20:32:30.158Z,9.40
2017-10-22T20:34:56.893Z,9.40
2017-10-22T20:37:23.543Z,9.40
2017-10-22T20:39:49.846Z,9.30
2017-10-22T20:42:16.171Z,9.20
2017-10-22T20:44:43.009Z,9.20
2017-10-22T20:47:09.334Z,9.20
2017-10-22T20:49:35.635Z,9.20
2017-10-22T20:52:02.340Z,9.20
2017-10-22T20:54:29.075Z,9.20
2017-10-22T20:56:55.879Z,9.10
2017-10-22T20:59:23.423Z,9.10
2017-10-22T21:01:49.735Z,9.10
2017-10-22T21:04:16.036Z,9.10
2017-10-22T21:06:42.471Z,9.10
2017-10-22T21:09:09.517Z,9.10
2017-10-22T21:11:36.655Z,9.10
2017-10-22T21:14:03.100Z,9.00
2017-10-22T21:16:30.241Z,9.00
2017-10-22T21:18:57.183Z,9.00
2017-10-22T21:21:23.597Z,9.00
2017-10-22T21:23:50.342Z,9.10
2017-10-22T21:26:16.645Z,9.00
2017-10-22T21:28:42.943Z,9.10
2017-10-22T21:31:09.279Z,9.00
2017-10-22T21:33:35.579Z,9.10
2017-10-22T21:36:02.255Z,9.10
2017-10-22T21:38:28.555Z,9.10
2017-10-22T21:40:54.852Z,9.10
2017-10-22T21:43:22.761Z,9.00
2017-10-22T21:45:49.091Z,9.00
2017-10-22T21:48:15.811Z,9.00
2017-10-22T21:50:42.863Z,8.90
2017-10-22T21:53:11.239Z,8.90
2017-10-22T21:55:38.291Z,9.00
2017-10-22T21:58:05.651Z,8.90
2017-10-22T22:00:32.688Z,8.90
2017-10-22T22:02:58.991Z,8.90
2017-10-22T22:05:25.323Z,8.90
2017-10-22T22:07:51.651Z,8.90
2017-10-22T22:10:18.351Z,8.80
2017-10-22T22:12:45.403Z,8.80
2017-10-22T22:15:11.709Z,8.80
2017-10-22T22:17:38.387Z,8.80
2017-10-22T22:20:05.928Z,8.80
2017-10-22T22:22:32.767Z,8.80
2017-10-22T22:24:59.407Z,8.90
2017-10-22T22:27:25.714Z,8.80
2017-10-22T22:29:52.017Z,8.80
2017-10-22T22:32:19.543Z,8.70
2017-10-22T22:34:46.466Z,8.70
2017-10-22T22:37:12.785Z,8.60
2017-10-22T22:39:39.464Z,8.50
2017-10-22T22:42:05.771Z,8.60
2017-10-22T22:44:32.459Z,8.50
2017-10-22T22:46:59.147Z,8.50
2017-10-22T22:49:25.446Z,8.40
2017-10-22T22:51:51.731Z,8.40
2017-10-22T22:54:18.519Z,8.40
2017-10-22T22:56:44.823Z,8.40
2017-10-22T22:59:11.467Z,8.40
2017-10-22T23:01:37.775Z,8.50
2017-10-22T23:04:04.091Z,8.40
2017-10-22T23:06:30.422Z,8.40
2017-10-22T23:08:56.725Z,8.40
2017-10-22T23:11:23.140Z,8.40
2017-10-22T23:13:49.452Z,8.40
2017-10-22T23:16:16.495Z,8.50
2017-10-22T23:18:43.999Z,8.40
2017-10-22T23:21:10.319Z,8.40
2017-10-22T23:23:36.621Z,8.40
2017-10-22T23:26:02.961Z,8.40
2017-10-22T23:28:29.251Z,8.40
2017-10-22T23:30:55.662Z,8.40
2017-10-22T23:33:22.394Z,8.50
2017-10-22T23:35:49.901Z,8.50
2017-10-22T23:38:16.202Z,8.50
2017-10-22T23:40:43.011Z,8.60
2017-10-22T23:43:09.318Z,8.60
2017-10-22T23:45:35.619Z,8.60
2017-10-22T23:48:02.699Z,8.50
2017-10-22T23:50:29.011Z,8.50
2017-10-22T23:52:55.795Z,8.60
2017-10-22T23:55:22.556Z,8.60
2017-10-22T23:57:49.423Z,8.60
